Accueil
METAR-TAF:

METAR-TAF

Aéroports :

Huesca, Espagne

Aéroport de Huesca-Pyrénées

latitude: 42-04-32N, longitude: 0-18-58W, altitude: 539 m

Observation

Le bulletin a été fait il y a 49 minutes, à 01:00 UTC
Vent 7 kt de est/nord-est
Température 14°C
Humidité 88%
Pression 1025 hPa
Visibilité 10 km ou plus

METAR: LEHC 170100Z AUTO 07007KT 9999 NCD 14/12 Q1025

Heure: 03:49 (01:49 UTC)

Prévision

Le bulletin a été fait il y a 17 heures et 49 minutes, à 08:00 UTC
Prévision valable du 16 à 09 UTC au 17 à 09 UTC
Vent 10 kt de est
Visibilité 10 km ou plus
Quelques nuages à une hauteur de 3000 ft
Temporairement
du 16 à 12 UTC au 16 à 18 UTC
Vent 10 kt de sud-est

TAF: LEHC 160800Z 1609/1709 09010KT 9999 FEW030 TX24/1614Z TN12/1706Z TEMPO 1612/1618 13010KT

Observations et prévisions météorologiques de plus de 4000 aéroports (messages METAR et TAF).

Les stations disponibles sont représentées par des disques jaunes et rouges sur la carte.

Passer la souris dessus pour voir le nom de la station.

Cliquer dessus pour voir les observations et prévisions météorologiques.

Pour changer de carte: cliquez sur les boutons verts avec une croix noire pour zoomer, sur le bouton vert avec un tiret pour effectuer un zoom arrière, ou sur les flèches vertes pour les cartes adjacentes.


METAR-TAF: